Latest Weather Observations for Darwin Airport

IDD60801

Issued at 10:31 am CST Sunday 19 April 2015 (issued every 30 minutes, with the page automatically refreshed every 10 minutes)

About weather observations | Map of weather stations | Latest weather observations for NT | Other Formats
Station Details ID: 014015 Name: DARWIN AIRPORT Lat: -12.42 Lon: 130.89 Height: 30.4 m
Data from the previous 72 hours. | See also: Recent months at Darwin Airport
Date/Time
CST
Temp
°C
App
Temp
°C
Dew
Point
Rel
Hum
%
Delta-T
°C
Wind Press
QNH
hPa
Press
MSL
hPa
Rain
since 9 am
mm
Dir
 
Spd
km/h
Gust
km/h
Spd
kts
Gust
kts
19/10:30am 30.7 31.2 21.2 57 6.4 E 20 28 11 15 1012.7 - 0.0
19/10:00am 30.5 31.0 21.9 60 5.8 E 22 33 12 18 1012.9 - 0.0
19/09:30am 29.7 30.7 21.8 62 5.3 E 19 24 10 13 1013.0 - 0.0
19/09:00am 29.1 32.7 24.4 76 3.3 E 13 19 7 10 1012.7 1012.4 3.0
19/08:30am 27.9 31.6 24.6 82 2.3 ESE 13 15 7 8 1012.8 - 3.0
19/07:30am 25.9 29.7 24.7 93 0.8 SW 13 15 7 8 1012.4 - 3.0
19/07:00am 25.6 29.6 24.4 93 0.8 SW 11 15 6 8 1012.0 - 3.0
19/06:30am 25.5 29.4 24.3 93 0.8 SW 11 13 6 7 1011.7 - 3.0
19/06:00am 25.4 29.3 24.2 93 0.8 SW 11 11 6 6 1011.4 1011.1 3.0
19/05:30am 25.5 30.1 24.2 92 0.9 SW 7 9 4 5 1011.2 - 3.0
19/05:00am 25.3 30.0 24.3 94 0.7 SW 7 9 4 5 1011.0 - 3.0
19/04:30am 25.4 29.3 24.2 93 0.8 SW 11 11 6 6 1011.0 - 3.0
19/04:00am 25.3 30.4 24.6 96 0.5 SW 6 7 3 4 1011.1 - 3.0
19/03:30am 25.5 31.3 24.6 95 0.6 SW 2 7 1 4 1011.0 - 3.0
19/03:00am 25.6 31.8 24.6 94 0.7 CALM 0 0 0 0 1011.2 1010.9 3.0
19/02:30am 25.9 31.2 24.3 91 1.1 SW 4 7 2 4 1011.5 - 3.0
19/02:00am 26.1 30.9 24.5 91 1.1 SW 7 9 4 5 1011.5 - 3.0
19/01:30am 26.4 31.6 24.8 91 1.1 NW 6 9 3 5 1011.7 - 3.0
19/01:00am 26.7 30.8 24.5 88 1.5 NNE 11 13 6 7 1012.0 - 3.0
19/12:30am 27.2 30.9 24.6 86 1.8 E 13 17 7 9 1012.2 - 3.0
19/12:00am 26.4 31.9 25.3 94 0.8 WSW 6 7 3 4 1012.3 1012.0 3.0
 
Date/Time
CST
Temp
°C
App
Temp
°C
Dew
Point
Rel
Hum
%
Delta-T
°C
Wind Press
QNH
hPa
Press
MSL
hPa
Rain
since 9 am
mm
Dir
 
Spd
km/h
Gust
km/h
Spd
kts
Gust
kts
18/11:30pm 26.4 33.1 25.4 94 0.7 CALM 0 0 0 0 1012.3 - 3.0
18/11:00pm 26.5 32.2 25.6 95 0.6 WSW 6 7 3 4 1012.2 - 3.0
18/10:30pm 26.5 32.4 25.4 94 0.8 WSW 4 7 2 4 1011.9 - 3.0
18/10:00pm 27.3 34.1 25.5 90 1.3 CALM 0 6 0 3 1011.9 - 3.0
18/09:30pm 26.8 32.0 25.1 90 1.2 NW 7 9 4 5 1011.9 - 3.0
18/09:00pm 27.2 34.0 25.5 90 1.2 CALM 0 0 0 0 1011.5 1011.2 3.0
18/08:30pm 27.4 34.1 25.4 89 1.4 CALM 0 6 0 3 1011.0 - 3.0
18/08:00pm 27.6 33.7 25.6 89 1.4 NNE 4 7 2 4 1010.7 - 3.0
18/07:30pm 27.9 32.6 24.0 79 2.7 N 6 9 3 5 1010.5 - 3.0
18/07:00pm 28.3 31.3 23.3 74 3.4 N 13 19 7 10 1010.0 - 3.0
18/06:30pm 29.0 32.7 25.2 80 2.7 N 15 19 8 10 1009.6 - 3.0
18/05:30pm 28.8 32.2 25.3 81 2.5 N 17 20 9 11 1009.1 - 0.0
18/05:25pm 30.3 33.7 25.2 74 3.6 NNW 17 20 9 11 1009.1 - 0.0
18/05:00pm 31.8 34.1 24.1 63 5.4 N 19 20 10 11 1008.6 - 0.0
18/04:30pm 31.9 35.0 24.2 63 5.4 NNW 15 20 8 11 1008.3 - 0.0
18/04:00pm 31.2 33.4 24.0 65 5.0 N 19 22 10 12 1008.5 - 0.0
18/03:30pm 31.1 33.1 23.6 64 5.2 NNW 19 22 10 12 1008.6 - 0.0
18/03:00pm 31.5 32.8 24.0 64 5.2 WNW 24 30 13 16 1008.7 1008.4 0.0
18/02:30pm 33.6 36.0 23.6 56 7.0 W 17 20 9 11 1009.1 - 0.0
18/02:00pm 32.3 34.9 21.9 54 7.1 E 11 19 6 10 1009.6 - 0.0
18/01:30pm 32.1 35.0 23.1 59 6.2 NE 13 24 7 13 1010.1 - 0.0
18/01:00pm 32.7 34.0 20.9 49 7.9 ESE 15 19 8 10 1010.6 - 0.0
18/12:30pm 32.2 33.5 21.6 53 7.2 ENE 17 28 9 15 1011.2 - 0.0
18/12:00pm 32.4 34.3 22.8 57 6.6 ENE 17 26 9 14 1011.7 1011.4 0.0
18/11:30am 32.1 33.8 23.1 59 6.2 ENE 19 24 10 13 1012.1 - 0.0
18/11:00am 31.3 33.3 23.0 61 5.7 E 17 24 9 13 1012.5 - 0.0
18/10:30am 30.7 33.1 23.0 63 5.3 E 15 19 8 10 1012.8 - 0.0
18/10:00am 30.2 33.4 23.7 68 4.5 E 13 19 7 10 1013.1 - 0.0
18/09:30am 29.6 32.7 24.1 72 3.8 SE 15 19 8 10 1012.7 - 0.0
18/09:00am 28.7 31.2 23.8 75 3.4 ESE 17 22 9 12 1012.5 1012.2 0.0
18/08:30am 28.4 32.0 24.4 79 2.8 ESE 13 17 7 9 1012.4 - 0.0
18/08:00am 28.1 32.3 24.1 79 2.8 ESE 9 11 5 6 1012.3 - 0.0
18/07:30am 26.8 30.7 24.2 86 1.8 SE 11 13 6 7 1011.9 - 0.0
18/07:00am 26.2 30.1 24.2 89 1.4 ESE 11 11 6 6 1011.5 - 0.0
18/06:30am 26.2 30.1 24.2 89 1.4 ESE 11 11 6 6 1011.2 - 0.0
18/06:00am 25.9 30.7 24.5 92 1.0 ESE 7 9 4 5 1010.8 1010.5 0.0
18/05:30am 26.2 32.6 24.9 92 0.9 CALM 0 0 0 0 1010.5 - 0.0
18/05:00am 26.7 33.0 24.8 89 1.3 CALM 0 0 0 0 1010.6 - 0.0
18/04:30am 26.8 33.0 24.6 88 1.5 CALM 0 0 0 0 1010.6 - 0.0
18/04:00am 26.9 33.3 24.9 89 1.4 CALM 0 0 0 0 1010.6 - 0.0
18/03:30am 26.7 31.9 24.8 89 1.3 E 6 7 3 4 1010.5 - 0.0
18/03:00am 26.9 31.8 24.7 88 1.5 E 7 11 4 6 1010.6 1010.3 0.0
18/02:30am 26.8 33.1 24.8 89 1.4 CALM 0 0 0 0 1010.6 - 0.0
18/02:00am 26.7 31.3 24.7 89 1.4 N 9 11 5 6 1010.7 - 0.0
18/01:30am 27.1 32.0 24.7 87 1.7 N 7 9 4 5 1011.1 - 0.0
18/01:00am 27.7 32.6 24.7 84 2.1 N 7 9 4 5 1011.6 - 0.0
18/12:30am 27.3 31.8 24.6 85 1.9 NNW 9 11 5 6 1011.8 - 0.0
18/12:00am 27.6 32.1 24.6 84 2.1 N 9 11 5 6 1011.8 1011.5 0.0
 
Date/Time
CST
Temp
°C
App
Temp
°C
Dew
Point
Rel
Hum
%
Delta-T
°C
Wind Press
QNH
hPa
Press
MSL
hPa
Rain
since 9 am
mm
Dir
 
Spd
km/h
Gust
km/h
Spd
kts
Gust
kts
17/11:30pm 27.6 31.0 24.1 81 2.4 N 13 17 7 9 1011.9 - 0.0
17/11:00pm 27.7 31.5 23.5 78 2.9 NNE 9 13 5 7 1011.9 - 0.0
17/10:30pm 27.8 31.2 23.3 76 3.1 NNE 11 13 6 7 1011.8 - 0.0
17/10:00pm 28.0 30.8 23.0 74 3.4 NE 13 17 7 9 1011.6 - 0.0
17/09:30pm 28.0 30.7 22.9 74 3.5 NE 13 17 7 9 1011.4 - 0.0
17/09:00pm 28.4 30.4 22.2 69 4.2 NE 15 19 8 10 1011.2 1010.9 0.0
17/08:30pm 28.5 30.2 22.3 69 4.2 NE 17 20 9 11 1010.8 - 0.0
17/08:00pm 28.7 30.5 22.5 69 4.2 NE 17 20 9 11 1010.6 - 0.0
17/07:30pm 29.0 30.8 22.5 68 4.4 NE 17 22 9 12 1010.2 - 0.0
17/07:00pm 29.2 30.6 22.6 67 4.5 NNE 19 26 10 14 1009.9 - 0.0
17/06:30pm 29.7 30.1 22.5 65 4.9 NNE 24 32 13 17 1009.6 - 0.0
17/06:00pm 30.3 31.0 23.0 65 5.0 NNE 24 35 13 19 1009.3 1009.0 0.0
17/05:30pm 31.0 30.8 22.8 61 5.6 N 28 35 15 19 1009.0 - 0.0
17/05:00pm 31.8 31.5 22.6 58 6.3 NNE 28 35 15 19 1008.8 - 0.0
17/04:30pm 31.8 31.9 21.8 55 6.8 NNE 24 33 13 18 1008.6 - 0.0
17/04:00pm 33.7 33.8 20.4 45 8.9 N 20 28 11 15 1008.6 - 0.0
17/03:30pm 33.8 33.7 20.0 44 9.2 N 20 28 11 15 1008.8 - 0.0
17/03:00pm 33.5 33.3 19.8 44 9.1 E 20 28 11 15 1009.0 1008.7 0.0
17/02:30pm 33.1 33.3 19.3 44 9.1 NE 17 28 9 15 1009.5 - 0.0
17/02:00pm 33.7 33.7 20.2 45 9.0 E 20 28 11 15 1010.0 - 0.0
17/01:30pm 33.2 34.6 21.0 48 8.2 NE 15 20 8 11 1010.4 - 0.0
17/01:00pm 32.7 33.2 20.8 49 8.0 E 19 24 10 13 1010.9 - 0.0
17/12:30pm 32.4 32.7 20.8 50 7.8 E 20 32 11 17 1011.5 - 0.0
17/12:00pm 32.4 32.6 20.2 48 8.1 E 19 28 10 15 1012.0 1011.7 0.0
17/11:30am 31.6 31.0 19.8 49 7.8 ENE 22 30 12 16 1012.5 - 0.0
17/11:00am 31.5 31.0 20.7 52 7.2 E 24 32 13 17 1013.0 - 0.0
17/10:30am 30.9 30.9 20.2 53 7.1 E 20 30 11 16 1013.3 - 0.0
17/10:00am 29.9 30.8 21.6 61 5.6 E 19 26 10 14 1013.7 - 0.0
17/09:30am 29.1 30.4 21.7 64 5.0 ESE 17 26 9 14 1013.7 - 0.0
17/09:00am 28.7 29.7 21.7 66 4.7 E 19 26 10 14 1013.5 1013.2 0.0
17/08:30am 27.6 29.5 22.1 72 3.7 E 15 19 8 10 1013.4 - -
17/08:00am 27.0 29.5 22.4 76 3.1 E 13 13 7 7 1013.0 - -
17/07:30am 26.0 29.6 23.1 84 2.0 ESE 9 13 5 7 1012.7 - -
17/07:00am 25.7 29.8 23.0 85 1.8 SE 6 9 3 5 1012.5 - -
17/06:30am 25.6 29.5 22.9 85 1.8 SE 7 7 4 4 1012.0 - -
17/06:00am 25.4 29.7 23.3 88 1.4 E 6 7 3 4 1011.7 1011.4 -
17/05:30am 25.8 29.4 23.0 84 1.9 E 9 9 5 5 1011.5 - -
17/05:00am 25.9 29.1 23.1 84 1.9 ENE 11 13 6 7 1011.5 - -
17/04:30am 25.9 28.0 23.1 84 1.9 ENE 17 20 9 11 1011.7 - -
17/04:00am 26.2 28.6 23.0 82 2.2 ENE 15 19 8 10 1011.6 - -
17/03:30am 26.6 28.5 22.8 79 2.6 ENE 17 22 9 12 1011.5 - -
17/03:00am 26.6 29.3 22.9 80 2.5 E 13 15 7 8 1011.8 1011.5 0.0
17/02:30am 26.5 30.2 23.3 82 2.2 E 9 11 5 6 1012.1 - -
17/02:00am 26.2 29.6 23.4 84 1.9 E 11 15 6 8 1012.5 - -
17/01:30am 26.5 29.7 23.1 81 2.3 ENE 11 13 6 7 1012.7 - -
17/01:00am 26.6 29.1 23.2 81 2.3 ENE 15 19 8 10 1013.2 - -
17/12:30am 26.9 29.1 23.2 80 2.5 ENE 17 19 9 10 1013.5 - -
17/12:00am 27.1 29.4 22.8 77 2.9 ENE 15 19 8 10 1013.8 1013.5 -
 
Date/Time
CST
Temp
°C
App
Temp
°C
Dew
Point
Rel
Hum
%
Delta-T
°C
Wind Press
QNH
hPa
Press
MSL
hPa
Rain
since 9 am
mm
Dir
 
Spd
km/h
Gust
km/h
Spd
kts
Gust
kts
16/11:30pm 27.2 29.5 22.8 77 3.0 ENE 15 19 8 10 1013.9 - -
16/11:00pm 26.9 29.4 23.1 80 2.6 ENE 15 20 8 11 1014.0 - -
16/10:30pm 27.0 29.4 23.0 79 2.7 E 15 19 8 10 1014.1 - -
16/10:00pm 26.8 29.4 22.7 78 2.8 ENE 13 17 7 9 1014.1 - -
16/09:30pm 27.3 29.5 22.6 75 3.2 ENE 15 17 8 9 1013.9 - -
16/09:00pm 27.6 29.9 22.7 74 3.3 ENE 15 19 8 10 1013.8 1013.5 0.0
16/08:30pm 28.1 29.4 22.3 70 3.9 ENE 19 26 10 14 1013.6 - -
16/08:00pm 28.4 31.1 22.2 69 4.2 E 11 15 6 8 1013.0 - -
16/07:30pm 29.0 31.3 22.0 66 4.7 ENE 13 15 7 8 1012.2 - -
16/07:00pm 29.3 32.2 21.7 63 5.1 NE 9 13 5 7 1011.9 - -
16/06:30pm 29.8 33.1 21.5 61 5.6 NE 6 9 3 5 1011.5 - -
16/06:00pm 30.5 30.7 20.6 55 6.6 NE 20 26 11 14 1011.2 1010.9 -
16/05:30pm 31.8 32.8 20.2 50 7.7 NNE 15 17 8 9 1010.9 - -
16/05:00pm 32.3 32.4 21.2 52 7.5 ENE 22 32 12 17 1010.7 - -
16/04:30pm 32.6 32.5 20.7 49 8.0 ENE 22 32 12 17 1010.7 - 0.0
16/04:00pm 32.7 33.5 19.9 46 8.5 NE 15 22 8 12 1010.9 - 0.0
16/03:30pm 32.4 32.1 19.5 46 8.5 NE 20 28 11 15 1010.8 - 0.0
16/03:00pm 33.0 31.6 18.8 43 9.3 E 24 30 13 16 1011.1 1010.8 0.0
16/02:30pm 32.7 31.1 18.4 42 9.3 E 24 33 13 18 1011.5 - 0.0
16/02:00pm 32.6 31.5 19.4 45 8.7 E 24 35 13 19 1011.9 - 0.0
16/01:30pm 31.8 30.9 19.8 49 7.9 ENE 24 33 13 18 1012.2 - 0.0
16/01:00pm 32.0 31.7 20.3 50 7.8 E 22 35 12 19 1012.8 - 0.0
16/12:30pm 31.4 30.8 20.4 52 7.3 E 24 35 13 19 1013.4 - 0.0
16/12:00pm 32.1 32.4 21.6 53 7.1 E 22 32 12 17 1013.9 1013.6 0.0
16/11:30am 31.3 30.4 21.5 56 6.6 E 28 35 15 19 1014.7 - 0.0
16/11:00am 30.5 29.5 21.2 57 6.2 E 28 35 15 19 1015.2 - 0.0

Other Formats:

Comma delimited format used in spreadsheet applications
http://www.bom.gov.au/fwo/IDD60801/IDD60801.94120.axf

JavaScript Object Notation format (JSON) in row-major order
http://www.bom.gov.au/fwo/IDD60801/IDD60801.94120.json